Northern Sonoma County Latest

25 Stations

15 Minute Data | America/Los_Angeles
as of 5/10/26 2:17 PM PDT
Station Date Time Temp (°F) RH (%) Dew Pt (°F) Wind Spd (mph) Wind Dir (°) Wind Gust (mph) Latest Rain (In) Daily Rain (In) Daily Max Temp (°F) Daily Min Temp (°F)
Bavarian Lion EFW 5/10/26 1415 78.8   4.5 - - - - - 0.00 0.00 79.4   4.5 48.0   0.9
Rockpile Lower (Cooley) 5/10/26 1400 83.0   0.1 43   9 58.1   6.5 2.6   1.9 SE | 144 7.3   1.7 0.00 0.00 84.3   0.8 51.2   2.2
Rockpile Upper (Cooley) 5/10/26 1415 79.0   1.2 49   12 58.1   6.4 6.3   2.4 SSE | 162 11.0   1.8 0.00 0.00 79.6   1.1 49.8   1.1
Lower Dry Creek Valley 5/10/26 1415 77.0   4.4 48   3 55.7   2.2 5.2   0.5 N | 355 9.5   1.3 0.00 0.00 77.7   4.0 50.7   3.8
Geyserville-South (Nervo Station) 5/10/26 1415 76.2   5.3 - - 5.0   0.3 S | 188 11.1   1.3 0.00 0.00 76.8   5.4 49.8   1.1
Franz Valley (Stornetta) 5/10/26 1415 79.0   2.4 50   9 58.8   3.4 2.7   0.2 WNW | 297 7.4   1.1 0.00 0.00 79.8   2.0 47.3   1.9
Geyserville (Ranch 3) 5/10/26 1415 78.2   5.4 48   9 57.1   1.0 5.6   0.2 SE | 132 10.4   1.0 0.00 0.00 79.1   4.8 50.9   2.4
Geyserville-North (Hoffman) 5/10/26 1415 79.3   5.7 52   10 60.1   0.8 6.1   1.1 SSE | 153 10.4   0.2 0.00 0.00 80.4   5.1 48.8   2.4
Knights Valley (Bavarian Lion) 5/10/26 1415 78.3   3.8 50   11 58.2   3.3 2.9   1.2 SW | 227 6.8   1.0 0.00 0.00 79.0   3.7 46.5   0.1
HWY 128/Chalk Hill Rd (Landslide) 5/10/26 1400 76.8   5.5 52   9 57.7   0.1 3.9   0.1 SSE | 159 8.2   0.8 0.00 0.00 77.2   5.6 50.4   3.9
Newman Knights Valley 5/10/26 1415 76.7   4.0 67   7 64.9   0.8 3.2   1.9 SSW | 210 6.7   2.6 0.00 0.00 77.4   3.7 48.7   1.1
Jimtown-North (Piccolo Ranch 15) 5/10/26 1415 77.0   5.2 49   9 56.6   0.7 2.4   1.0 ESE | 123 7.9   0.7 0.00 0.00 77.8   5.5 48.5   2.1
Peterson (Ranch 09) 5/10/26 1415 77.3   4.3 48   7 56.0   0.3 4.3   1.0 SSE | 157 7.8   1.9 0.00 0.00 77.5   4.6 50.1   3.1
Cloverdale-SE (Ranch 38) 5/10/26 1415 78.8   5.7 53   12 60.2   1.8 10.6   3.2 S | 177 15.7   2.5 0.00 0.00 79.6   6.2 47.7   3.5
Geyserville-East (Ranch 40) 5/10/26 1415 76.3   4.5 57   10 59.9   1.2 11.7   1.1 S | 190 18.5   1.9 0.00 0.00 77.3   5.4 48.7   1.1
N Chalk Hill Rd (Ranch 63) 5/10/26 1415 76.4   4.9 49   6 56.0   0.6 5.3   0.9 SSE | 163 9.6   1.5 0.00 0.00 76.9   4.9 48.5   3.2
Cloverdale-East (Ranch 83) 5/10/26 1415 82.4   5.2 - - 5.4   1.0 S | 176 12.7   2.4 0.00 0.00 82.7   5.4 48.1   0.2
Crazy Creek Ranch 5/10/26 1415 78.1   5.0 55   9 60.8   0.0 4.7   1.1 SSE | 148 8.6   0.1 0.00 0.00 78.3   4.9 48.7   1.2
Lytton East (Hill 5) 5/10/26 1415 76.2   3.9 52   4 57.2   1.2 6.4   0.9 SSE | 165 10.4   0.8 0.00 0.00 77.1   3.6 50.4   3.2
Lytton East (Shop Hill Bottom) 5/10/26 1415 76.3   4.6 50   5 56.3   1.4 5.3   0.2 SSE | 155 9.1   1.1 0.00 0.00 76.7   4.5 50.4   5.2
Lytton West Hill (23PS) 5/10/26 1415 76.6   3.6 49   3 55.9   1.7 5.9   1.1 S | 172 11.1   0.9 0.00 0.00 77.4   3.8 50.7   2.7
Lytton West Lower (Lew 6) 5/10/26 1415 76.6   5.2 49   4 55.8   2.2 4.7   0.2 SSE | 154 9.9   0.1 0.00 0.00 77.1   5.2 48.3   4.0
Whitton Ranch (201e) 5/10/26 1415 79.2   3.7 49   5 58.6   0.1 3.6   0.9 SSE | 168 8.9   0.3 0.00 0.00 80.0   3.2 44.2   1.2
Upper Dry Creek Valley 5/10/26 1400 79.1   4.6 47   6 57.3   0.4 5.5   0.4 SSE | 161 8.9   1.0 0.00 0.00 80.2   4.1 48.9   3.1
Big River 5/10/26 1415 76.3   4.2 52   5 57.6   1.2 5.3   0.0 S | 170 9.9   0.5 0.00 0.00 76.6   4.3 50.5   2.1
Max     83.0 67 64.9 11.7 - 18.5 0.00 0.00 84.3 51.2
Avg     78.0 51 58.0 5.2 - 9.9 0.00 - - -
Min     76.2 43 55.7 2.4 - 6.7 0.00 0.00 76.6 44.2